Time;durP1;ratioP1;P1;durP2;ratioP2;P2;SDS_P1;SDS_P2;PMS_P1;PMS_P2;Temp;Humidity;BMP_temperature;BMP_pressure;BME280_temperature;BME280_humidity;BME280_pressure;Samples;Min_cycle;Max_cycle;Signal;HPM_P1;HPM_P2
2022/09/04 00:01:58;;;;;;;2.47;2.23;;;;;;;20.16;85.23;98636.91;4964547;28;103246;-69
2022/09/04 00:04:35;;;;;;;2.57;2.30;;;;;;;20.10;85.49;98626.03;4962885;28;103976;-69
2022/09/04 00:07:18;;;;;;;2.60;1.98;;;;;;;20.07;85.25;98627.22;4947701;28;103440;-69
2022/09/04 00:09:56;;;;;;;1.90;1.70;;;;;;;20.07;84.70;98627.22;4962160;28;102966;-69
2022/09/04 00:12:33;;;;;;;2.40;2.20;;;;;;;20.08;85.50;98625.38;4964978;28;103051;-69
2022/09/04 00:15:07;;;;;;;3.05;2.70;;;;;;;20.08;85.11;98618.16;4963643;28;104514;-69
2022/09/04 00:17:44;;;;;;;2.70;2.50;;;;;;;20.00;85.56;98626.25;4966682;28;103681;-69
2022/09/04 00:20:26;;;;;;;2.15;1.95;;;;;;;20.00;85.21;98631.59;4962790;28;102735;-70
2022/09/04 00:23:02;;;;;;;2.40;2.20;;;;;;;19.91;85.55;98637.16;4957191;28;103843;-69
2022/09/04 00:25:40;;;;;;;3.00;2.70;;;;;;;19.88;85.45;98632.13;4965461;28;103452;-69
2022/09/04 00:28:17;;;;;;;4.32;3.05;;;;;;;19.73;86.42;98628.50;4963937;28;103940;-69
2022/09/04 00:30:53;;;;;;;4.93;4.25;;;;;;;18.81;92.53;98632.28;4963848;28;102712;-69
2022/09/04 00:33:30;;;;;;;4.28;3.90;;;;;;;18.87;93.66;98631.63;4959785;28;103789;-69
2022/09/04 00:36:02;;;;;;;3.60;3.30;;;;;;;19.20;91.85;98631.66;4961113;28;103282;-69
2022/09/04 00:38:40;;;;;;;3.53;3.15;;;;;;;19.35;90.34;98641.53;4962447;28;103205;-69
2022/09/04 00:41:18;;;;;;;2.30;2.10;;;;;;;19.47;88.26;98642.91;4962904;28;102947;-69
2022/09/04 00:44:17;;;;;;;5.63;3.70;;;;;;;19.29;87.68;98646.72;4960562;28;103454;-69
2022/09/04 00:47:02;;;;;;;3.13;2.83;;;;;;;19.25;89.30;98650.75;4961817;28;103241;-69
2022/09/04 00:49:56;;;;;;;5.47;3.30;;;;;;;19.28;88.52;98643.22;4962459;28;103230;-69
2022/09/04 00:52:41;;;;;;;2.40;2.20;;;;;;;19.31;87.85;98648.22;4963487;28;102710;-69
2022/09/04 00:55:27;;;;;;;1.90;1.80;;;;;;;19.40;86.76;98649.09;4963311;28;102965;-69
2022/09/04 00:58:09;;;;;;;2.43;2.10;;;;;;;19.47;85.91;98648.28;4963829;28;103349;-69
2022/09/04 01:00:39;;;;;;;2.93;2.17;;;;;;;19.52;85.58;98648.59;4959923;28;103177;-69
2022/09/04 01:03:35;;;;;;;3.47;2.58;;;;;;;19.38;85.91;98651.06;4958093;28;102921;-69
2022/09/04 01:06:34;;;;;;;3.80;3.15;;;;;;;19.38;85.93;98659.13;4961677;28;102986;-69
2022/09/04 01:09:37;;;;;;;2.38;2.17;;;;;;;19.24;85.98;98665.13;4963756;28;104035;-69
2022/09/04 01:12:19;;;;;;;3.00;2.80;;;;;;;19.26;88.31;98663.97;4958887;28;103765;-69
2022/09/04 01:14:54;;;;;;;2.83;2.50;;;;;;;19.34;88.64;98666.63;4960660;28;102760;-69
2022/09/04 01:17:31;;;;;;;3.35;2.72;;;;;;;19.43;88.34;98664.84;4950059;28;104305;-69
2022/09/04 01:20:14;;;;;;;2.30;2.10;;;;;;;19.48;88.30;98665.19;4959506;28;102967;-69
2022/09/04 01:22:59;;;;;;;3.00;2.70;;;;;;;19.51;87.01;98670.19;4962556;28;103202;-69
2022/09/04 01:25:50;;;;;;;2.20;1.98;;;;;;;19.48;86.73;98670.56;4963291;28;103825;-69
2022/09/04 01:28:27;;;;;;;1.95;1.85;;;;;;;19.45;86.41;98676.25;4963464;28;102974;-69
2022/09/04 01:31:05;;;;;;;3.65;3.35;;;;;;;19.17;87.86;98680.19;4963391;28;103405;-70
2022/09/04 01:33:41;;;;;;;2.53;2.33;;;;;;;19.26;87.27;98689.91;4967293;28;103197;-69
2022/09/04 01:36:18;;;;;;;4.40;3.53;;;;;;;18.71;91.69;98689.63;4962686;28;103173;-69
2022/09/04 01:38:52;;;;;;;3.10;2.35;;;;;;;19.02;90.38;98682.69;4963732;28;102781;-69
2022/09/04 01:41:29;;;;;;;3.40;2.90;;;;;;;19.08;89.05;98688.22;4962919;28;103227;-69
2022/09/04 01:44:08;;;;;;;4.13;3.20;;;;;;;19.10;87.79;98686.22;4963764;28;103189;-69
2022/09/04 01:46:48;;;;;;;2.90;2.60;;;;;;;19.16;87.47;98683.88;4969242;28;103296;-69
2022/09/04 01:49:27;;;;;;;3.00;2.80;;;;;;;19.09;88.08;98681.84;4963509;28;103011;-69
2022/09/04 01:52:05;;;;;;;4.32;3.40;;;;;;;18.88;88.57;98686.84;4965435;28;104069;-69
2022/09/04 01:54:49;;;;;;;3.00;2.80;;;;;;;18.97;88.82;98687.69;4965015;28;103436;-69
2022/09/04 01:57:29;;;;;;;2.22;2.03;;;;;;;19.08;87.03;98690.06;4963488;28;104620;-69
2022/09/04 02:00:06;;;;;;;2.40;2.10;;;;;;;19.11;86.64;98692.41;4961824;28;104288;-69
2022/09/04 02:02:46;;;;;;;2.35;2.15;;;;;;;19.10;86.51;98701.44;4961555;28;103810;-69
2022/09/04 02:05:26;;;;;;;1.83;1.73;;;;;;;19.11;85.76;98695.91;4962495;28;103232;-69
2022/09/04 02:08:11;;;;;;;2.60;2.40;;;;;;;19.10;85.61;98696.91;4967254;28;104688;-69
2022/09/04 02:10:49;;;;;;;2.30;2.10;;;;;;;19.11;84.73;98698.56;4966252;28;102683;-69
2022/09/04 02:13:22;;;;;;;3.40;3.10;;;;;;;19.09;84.96;98703.28;4966955;28;103459;-69
2022/09/04 02:16:04;;;;;;;2.85;2.60;;;;;;;19.05;85.46;98704.63;4963988;28;103154;-69
2022/09/04 02:18:44;;;;;;;2.50;2.30;;;;;;;19.05;85.41;98699.25;4965959;28;103143;-69
2022/09/04 02:21:25;;;;;;;3.60;3.20;;;;;;;18.98;86.81;98708.94;4964239;28;103259;-70
2022/09/04 02:24:03;;;;;;;2.38;2.17;;;;;;;19.04;85.71;98707.44;4966377;28;103262;-69
2022/09/04 02:26:37;;;;;;;2.28;2.08;;;;;;;19.04;84.79;98704.75;4965352;28;103189;-69
2022/09/04 02:29:15;;;;;;;2.13;1.98;;;;;;;19.06;84.52;98716.13;4964112;28;102707;-69
2022/09/04 02:31:54;;;;;;;3.33;2.45;;;;;;;19.00;84.61;98717.63;4961945;28;102761;-69
2022/09/04 02:34:32;;;;;;;4.72;3.50;;;;;;;18.89;85.46;98709.09;4962329;28;103436;-69
2022/09/04 02:37:09;;;;;;;3.70;3.13;;;;;;;18.51;89.15;98707.75;4965628;28;103195;-69
2022/09/04 02:39:51;;;;;;;5.05;4.55;;;;;;;18.23;90.89;98704.41;4962430;28;102679;-69
2022/09/04 02:42:30;;;;;;;2.85;2.65;;;;;;;18.57;90.53;98703.59;4968678;28;102739;-69
2022/09/04 02:45:12;;;;;;;2.60;2.20;;;;;;;18.71;88.75;98708.34;4966978;28;103279;-69
2022/09/04 02:47:47;;;;;;;2.80;2.60;;;;;;;18.78;87.24;98712.06;4967286;28;103743;-69
2022/09/04 02:50:28;;;;;;;4.37;3.97;;;;;;;18.55;87.00;98709.13;4964871;28;103707;-70
2022/09/04 02:53:07;;;;;;;3.63;3.33;;;;;;;18.55;87.54;98705.63;4962714;28;103987;-69
2022/09/04 02:56:08;;;;;;;3.22;2.92;;;;;;;18.42;88.62;98706.00;4950422;28;103630;-69
2022/09/04 02:58:50;;;;;;;3.30;2.75;;;;;;;18.51;88.00;98713.13;4963762;28;103269;-69
2022/09/04 03:01:28;;;;;;;2.33;2.13;;;;;;;18.62;86.90;98711.97;4966907;28;102964;-69
2022/09/04 03:04:03;;;;;;;2.03;1.92;;;;;;;18.66;85.76;98711.53;4948284;28;103187;-70
2022/09/04 03:06:47;;;;;;;2.45;2.10;;;;;;;18.67;85.70;98715.00;4966517;28;103328;-69
2022/09/04 03:09:21;;;;;;;2.83;2.63;;;;;;;18.58;84.17;98714.16;4963434;28;104051;-69
2022/09/04 03:11:57;;;;;;;4.77;3.70;;;;;;;18.20;87.55;98711.91;4964988;28;103137;-69
2022/09/04 03:14:33;;;;;;;3.93;3.53;;;;;;;18.09;89.43;98709.50;4965216;28;104072;-69
2022/09/04 03:17:09;;;;;;;2.45;2.25;;;;;;;18.31;87.52;98728.53;4964844;28;103298;-70
2022/09/04 03:19:47;;;;;;;2.08;1.90;;;;;;;18.43;86.17;98729.94;4964093;28;103099;-69
2022/09/04 03:22:21;;;;;;;4.20;3.30;;;;;;;18.35;85.29;98726.38;4964007;28;102715;-69
2022/09/04 03:25:09;;;;;;;3.45;3.20;;;;;;;18.28;86.21;98719.97;4967670;28;103738;-69
2022/09/04 03:27:37;;;;;;;4.57;3.83;;;;;;;17.99;87.60;98724.81;4964678;28;104029;-70
2022/09/04 03:30:08;;;;;;;3.60;3.30;;;;;;;17.99;88.54;98722.16;4964104;28;103198;-69
2022/09/04 03:32:51;;;;;;;4.10;3.70;;;;;;;17.63;90.20;98724.88;4963857;28;103844;-69
2022/09/04 03:35:29;;;;;;;4.38;3.97;;;;;;;17.66;90.57;98732.59;4946255;28;102847;-69
2022/09/04 03:38:08;;;;;;;4.70;3.93;;;;;;;17.76;90.84;98730.69;4959955;28;103490;-70
2022/09/04 03:40:40;;;;;;;3.65;3.40;;;;;;;17.84;90.94;98728.06;4965287;28;103242;-69
2022/09/04 03:43:21;;;;;;;2.53;2.33;;;;;;;17.96;90.09;98737.47;4965487;28;102738;-62
2022/09/04 03:45:56;;;;;;;3.70;3.30;;;;;;;17.98;88.14;98729.31;4961971;28;102976;-66
2022/09/04 03:48:40;;;;;;;4.03;3.00;;;;;;;18.03;87.27;98734.19;4961985;28;104708;-64
2022/09/04 03:51:23;;;;;;;3.95;3.35;;;;;;;17.92;87.14;98736.13;4963798;28;103240;-64
2022/09/04 03:54:01;;;;;;;4.18;3.78;;;;;;;17.59;91.00;98733.34;4964613;28;102823;-63
2022/09/04 03:56:46;;;;;;;4.43;4.03;;;;;;;17.51;91.53;98736.78;4963896;28;102968;-64
2022/09/04 03:59:27;;;;;;;4.90;4.32;;;;;;;17.01;93.76;98740.94;4966735;28;103276;-64
2022/09/04 04:02:05;;;;;;;6.17;4.47;;;;;;;17.03;95.08;98746.97;4964057;28;103240;-64
2022/09/04 04:05:10;;;;;;;4.90;4.47;;;;;;;16.98;95.54;98750.06;4959375;28;102816;-63
2022/09/04 04:07:49;;;;;;;5.40;4.90;;;;;;;16.67;97.12;98744.19;4955607;28;102813;-63
2022/09/04 04:10:32;;;;;;;5.15;4.68;;;;;;;16.55;98.37;98753.41;4962263;28;103276;-63
2022/09/04 04:13:18;;;;;;;6.03;4.78;;;;;;;16.43;100.00;98746.53;4962067;28;103197;-64
2022/09/04 04:15:57;;;;;;;4.50;4.20;;;;;;;16.98;98.03;98746.56;4961944;28;102683;-63
2022/09/04 04:18:52;;;;;;;4.30;4.00;;;;;;;17.13;95.49;98755.72;4963784;28;104015;-64
2022/09/04 04:21:35;;;;;;;4.90;4.30;;;;;;;17.18;95.63;98762.31;4961711;28;103745;-64
2022/09/04 04:24:28;;;;;;;3.40;3.10;;;;;;;17.47;93.84;98772.78;4962119;28;103090;-64
2022/09/04 04:27:06;;;;;;;4.65;4.10;;;;;;;17.48;91.30;98773.63;4966288;28;102745;-64
2022/09/04 04:29:55;;;;;;;3.77;3.47;;;;;;;17.62;90.56;98779.31;4967973;28;103004;-64
2022/09/04 04:32:45;;;;;;;3.10;2.90;;;;;;;17.73;89.60;98773.72;4960830;28;103679;-64
2022/09/04 04:35:25;;;;;;;2.80;2.60;;;;;;;17.80;88.35;98782.78;4941759;28;103212;-64
2022/09/04 04:38:07;;;;;;;2.70;2.50;;;;;;;17.89;87.66;98789.06;4960654;28;102761;-64
2022/09/04 04:40:54;;;;;;;2.78;2.58;;;;;;;17.93;87.42;98783.25;4963214;28;102736;-64
2022/09/04 04:43:33;;;;;;;3.65;3.30;;;;;;;17.94;87.13;98782.25;4967147;28;103250;-65
2022/09/04 04:46:11;;;;;;;3.10;2.90;;;;;;;18.00;88.10;98793.31;4960554;28;103240;-64
2022/09/04 04:49:06;;;;;;;2.67;2.47;;;;;;;18.09;87.65;98795.91;4963252;28;102713;-64
2022/09/04 04:51:56;;;;;;;2.35;2.10;;;;;;;18.10;86.08;98791.41;4962907;28;103791;-64
2022/09/04 04:54:51;;;;;;;3.20;2.90;;;;;;;18.13;85.93;98804.47;4964339;28;104215;-64
2022/09/04 04:57:31;;;;;;;3.10;2.60;;;;;;;18.12;85.81;98808.13;4961013;28;103569;-65
2022/09/04 05:00:08;;;;;;;2.17;2.08;;;;;;;18.14;85.74;98816.81;4960005;28;103256;-65
2022/09/04 05:02:42;;;;;;;3.85;3.40;;;;;;;18.10;86.12;98818.13;4947725;28;103603;-65
2022/09/04 05:05:16;;;;;;;3.38;3.08;;;;;;;18.14;86.70;98811.47;4960156;28;103307;-64
2022/09/04 05:07:55;;;;;;;2.75;2.55;;;;;;;18.24;86.40;98820.25;4966336;28;103210;-64
2022/09/04 05:10:29;;;;;;;2.63;2.42;;;;;;;18.30;85.85;98822.31;4961294;28;102724;-64
2022/09/04 05:13:11;;;;;;;2.80;2.60;;;;;;;18.31;85.93;98822.13;4961169;28;102834;-63
2022/09/04 05:15:45;;;;;;;3.60;3.33;;;;;;;18.30;85.76;98824.97;4964332;28;103750;-64
2022/09/04 05:18:41;;;;;;;3.13;2.92;;;;;;;18.32;86.09;98841.69;4966454;28;104448;-64
2022/09/04 05:21:19;;;;;;;2.75;2.55;;;;;;;18.33;86.07;98846.06;4962774;28;103023;-65
2022/09/04 05:23:54;;;;;;;3.28;3.08;;;;;;;18.39;85.72;98843.56;4964941;28;102782;-65
2022/09/04 05:26:31;;;;;;;4.25;3.95;;;;;;;18.40;86.24;98849.78;4962488;28;103271;-64
2022/09/04 05:29:06;;;;;;;3.95;3.65;;;;;;;18.42;86.05;98858.47;4962355;28;103319;-65
2022/09/04 05:31:42;;;;;;;3.60;3.35;;;;;;;18.49;86.19;98862.25;4962380;28;102756;-65
2022/09/04 05:34:19;;;;;;;2.65;2.45;;;;;;;18.54;85.40;98865.28;4963066;28;104033;-65
2022/09/04 05:36:57;;;;;;;2.85;2.65;;;;;;;18.59;85.88;98871.00;4961505;28;103240;-65
2022/09/04 05:39:30;;;;;;;3.78;3.47;;;;;;;18.60;85.98;98870.00;4963535;28;103192;-65
2022/09/04 05:42:12;;;;;;;3.85;3.55;;;;;;;18.58;86.42;98877.38;4961461;28;102735;-65
2022/09/04 05:44:57;;;;;;;3.90;3.60;;;;;;;18.57;87.19;98875.69;4964001;28;103217;-65
2022/09/04 05:47:42;;;;;;;3.15;2.95;;;;;;;18.72;86.56;98882.16;4961915;28;103271;-65
2022/09/04 05:50:36;;;;;;;3.75;3.45;;;;;;;18.78;86.46;98883.34;4946305;28;103191;-65
2022/09/04 05:53:27;;;;;;;3.50;3.30;;;;;;;18.83;86.33;98876.53;4960959;28;102828;-65
2022/09/04 05:56:40;;;;;;;3.33;3.13;;;;;;;18.79;86.66;98890.38;4960864;28;102693;-65
2022/09/04 05:59:26;;;;;;;2.47;2.30;;;;;;;18.94;86.28;98886.97;4954691;28;103436;-65
2022/09/04 06:02:29;;;;;;;4.90;3.60;;;;;;;18.99;85.84;98892.66;4942020;28;103261;-65
2022/09/04 06:05:17;;;;;;;2.63;2.45;;;;;;;19.09;85.77;98893.38;4966285;28;102793;-65
2022/09/04 06:07:54;;;;;;;4.10;3.70;;;;;;;19.02;86.55;98899.53;4962487;28;104041;-65
2022/09/04 06:10:35;;;;;;;3.23;3.03;;;;;;;19.07;86.61;98899.91;4963355;28;103862;-65
2022/09/04 06:13:31;;;;;;;3.83;3.53;;;;;;;18.99;87.78;98897.19;4964053;28;103374;-65
2022/09/04 06:16:15;;;;;;;3.75;3.45;;;;;;;19.16;86.88;98903.47;4940153;28;103950;-65
2022/09/04 06:19:00;;;;;;;4.20;3.80;;;;;;;19.04;87.22;98909.09;4963605;28;103939;-65
2022/09/04 06:21:58;;;;;;;3.53;3.22;;;;;;;19.18;86.61;98904.13;4965436;28;104039;-65
2022/09/04 06:24:55;;;;;;;4.00;3.70;;;;;;;18.99;88.10;98910.56;4966967;28;104624;-65
2022/09/04 06:27:38;;;;;;;3.40;3.10;;;;;;;19.25;87.83;98905.19;4967830;28;102646;-65
2022/09/04 06:30:09;;;;;;;3.80;3.50;;;;;;;19.27;87.46;98911.22;4964738;28;102981;-65
2022/09/04 06:32:52;;;;;;;3.20;2.90;;;;;;;19.51;86.58;98914.00;4962893;28;103275;-65
2022/09/04 06:35:51;;;;;;;3.63;3.33;;;;;;;19.55;86.24;98920.72;4964988;28;103183;-66
2022/09/04 06:38:34;;;;;;;3.35;3.05;;;;;;;19.72;85.50;98926.97;4966223;28;104098;-65
2022/09/04 06:41:18;;;;;;;2.50;2.33;;;;;;;19.94;83.89;98927.22;4961590;28;102766;-64
2022/09/04 06:43:58;;;;;;;3.55;3.35;;;;;;;20.02;84.43;98921.03;4953831;28;103916;-65
2022/09/04 06:46:59;;;;;;;3.42;3.08;;;;;;;20.10;84.25;98926.38;4966272;28;103292;-66
2022/09/04 06:49:57;;;;;;;3.22;3.03;;;;;;;20.11;84.08;98928.94;4967663;28;102674;-69
2022/09/04 06:52:33;;;;;;;2.92;2.72;;;;;;;20.13;84.46;98932.28;4950230;28;102829;-69
2022/09/04 06:55:13;;;;;;;4.43;4.03;;;;;;;19.51;85.15;98930.94;4951357;28;103302;-69
2022/09/04 06:57:58;;;;;;;4.13;3.83;;;;;;;19.56;89.33;98935.81;4969243;28;103215;-69
2022/09/04 07:00:30;;;;;;;3.90;3.60;;;;;;;20.03;85.76;98931.59;4966334;28;103976;-69
2022/09/04 07:03:20;;;;;;;3.72;3.30;;;;;;;20.28;84.70;98935.19;4967576;28;102669;-69
2022/09/04 07:05:54;;;;;;;3.50;3.30;;;;;;;20.51;83.72;98938.03;4968331;28;104061;-69
2022/09/04 07:08:37;;;;;;;3.42;3.22;;;;;;;20.53;84.03;98938.69;4975249;28;103178;-69
2022/09/04 07:11:19;;;;;;;3.45;3.15;;;;;;;20.59;83.99;98938.88;4964832;28;103658;-69
2022/09/04 07:14:15;;;;;;;3.28;3.00;;;;;;;20.89;82.48;98948.06;4968213;28;103556;-69
2022/09/04 07:16:55;;;;;;;3.23;3.00;;;;;;;20.97;82.36;98958.78;4969042;28;103312;-69
2022/09/04 07:20:07;;;;;;;3.70;3.40;;;;;;;20.53;83.13;98958.34;4971143;28;103171;-69
2022/09/04 07:22:53;;;;;;;4.15;3.83;;;;;;;20.65;84.13;98964.22;4976016;28;103587;-69
2022/09/04 07:25:27;;;;;;;2.88;2.67;;;;;;;21.06;83.32;98965.84;4970431;28;103864;-69
2022/09/04 07:28:14;;;;;;;3.28;2.97;;;;;;;21.46;80.67;98964.94;4949360;28;104289;-69
2022/09/04 07:30:46;;;;;;;4.07;3.08;;;;;;;21.52;78.96;98968.78;4970116;28;103252;-69
2022/09/04 07:33:23;;;;;;;3.40;3.10;;;;;;;21.79;79.08;98961.09;4973512;28;102943;-69
2022/09/04 07:35:59;;;;;;;2.55;2.40;;;;;;;22.02;78.93;98963.03;4978833;28;103395;-69
2022/09/04 07:38:35;;;;;;;2.70;2.50;;;;;;;22.57;76.72;98965.53;4974048;28;103289;-69
2022/09/04 07:41:11;;;;;;;3.35;3.15;;;;;;;22.04;78.01;98961.84;4953749;28;103218;-69
2022/09/04 07:43:50;;;;;;;4.18;3.33;;;;;;;21.80;79.41;98959.25;4975371;28;102652;-69
2022/09/04 07:46:32;;;;;;;3.55;3.25;;;;;;;21.26;79.40;98975.25;4951498;28;102718;-69
2022/09/04 07:49:10;;;;;;;2.90;2.70;;;;;;;22.43;78.07;98977.88;4976468;28;103180;-69
2022/09/04 07:51:45;;;;;;;3.03;2.72;;;;;;;22.98;74.89;98977.66;4954205;28;104171;-69
2022/09/04 07:54:49;;;;;;;3.28;2.70;;;;;;;23.65;71.74;98973.91;4955689;28;102855;-69
2022/09/04 07:57:39;;;;;;;3.00;2.80;;;;;;;24.14;70.46;98979.53;4964824;28;103746;-70
2022/09/04 08:00:09;;;;;;;3.08;2.88;;;;;;;24.55;69.81;98987.88;4972931;28;104147;-70
2022/09/04 08:03:15;;;;;;;3.33;3.08;;;;;;;24.49;69.91;98993.19;4977066;28;103222;-71
2022/09/04 08:05:52;;;;;;;2.78;2.58;;;;;;;24.95;66.87;98982.88;4976444;28;102923;-70
2022/09/04 08:08:57;;;;;;;3.00;2.70;;;;;;;24.85;69.22;98993.16;4970499;28;102861;-70
2022/09/04 08:11:40;;;;;;;2.63;2.42;;;;;;;25.29;66.02;98991.84;4973990;28;103283;-70
2022/09/04 08:14:32;;;;;;;2.90;2.50;;;;;;;25.59;66.38;98997.91;4962696;28;103352;-70
2022/09/04 08:17:35;;;;;;;3.00;2.70;;;;;;;25.67;67.12;98989.63;4973329;28;102611;-72
2022/09/04 08:20:11;;;;;;;3.67;2.77;;;;;;;25.66;63.67;99006.88;4952521;28;102598;-70
2022/09/04 08:22:53;;;;;;;3.97;2.80;;;;;;;26.14;64.58;98996.09;4977536;28;103284;-70
2022/09/04 08:25:27;;;;;;;3.20;2.60;;;;;;;26.22;63.85;99004.03;4975447;28;103265;-70
2022/09/04 08:28:11;;;;;;;2.95;2.75;;;;;;;25.85;63.84;99003.44;4976607;28;102918;-70
2022/09/04 08:30:50;;;;;;;2.90;2.70;;;;;;;26.20;61.89;99006.13;4971241;28;102788;-70
2022/09/04 08:33:50;;;;;;;3.57;3.20;;;;;;;25.49;62.27;99010.94;4961058;28;103145;-69
2022/09/04 08:36:27;;;;;;;3.10;2.50;;;;;;;26.24;63.28;99007.41;4976568;28;103295;-69
2022/09/04 08:39:06;;;;;;;2.58;2.38;;;;;;;26.91;60.46;99015.50;4973048;28;102572;-69
2022/09/04 08:42:10;;;;;;;2.70;2.50;;;;;;;26.71;59.51;99012.72;4971925;28;104816;-70
2022/09/04 08:45:15;;;;;;;3.70;3.00;;;;;;;25.26;62.97;99019.28;4981250;28;104162;-70
2022/09/04 08:48:19;;;;;;;2.47;2.27;;;;;;;26.89;62.91;99015.69;4975961;28;103306;-70
2022/09/04 08:51:08;;;;;;;3.90;2.35;;;;;;;25.71;62.02;99017.94;4969847;28;102594;-70
2022/09/04 08:54:17;;;;;;;2.45;2.22;;;;;;;26.53;62.51;99017.09;4976212;28;102573;-70
2022/09/04 08:56:52;;;;;;;2.50;2.30;;;;;;;26.58;60.23;99015.44;4983687;28;103606;-70
2022/09/04 09:00:01;;;;;;;2.88;2.58;;;;;;;25.56;61.42;99025.38;4976927;28;102972;-70
2022/09/04 09:03:03;;;;;;;2.70;2.50;;;;;;;25.06;63.00;99028.28;4981593;28;102643;-70
2022/09/04 09:06:00;;;;;;;2.90;2.60;;;;;;;26.78;59.02;99021.72;4947879;28;102809;-70
2022/09/04 09:09:10;;;;;;;3.00;2.67;;;;;;;26.04;60.98;99020.84;4955569;28;103338;-70
2022/09/04 09:12:17;;;;;;;2.03;1.83;;;;;;;27.65;59.55;99012.56;4973160;28;102966;-70
2022/09/04 09:15:14;;;;;;;1.60;1.50;;;;;;;27.66;54.93;99015.06;4977181;28;102721;-70
2022/09/04 09:17:59;;;;;;;2.03;1.83;;;;;;;28.64;56.17;99011.13;4953747;28;104195;-70
2022/09/04 09:20:29;;;;;;;2.37;2.17;;;;;;;28.44;53.65;99010.38;4971224;28;103239;-70
2022/09/04 09:23:19;;;;;;;1.60;1.47;;;;;;;28.99;52.34;99012.34;4977248;28;103276;-70
2022/09/04 09:25:52;;;;;;;2.70;1.38;;;;;;;29.34;51.82;99009.97;4976023;28;102994;-70
2022/09/04 09:29:05;;;;;;;1.50;1.40;;;;;;;28.69;53.75;99005.84;4978310;28;103022;-70
2022/09/04 09:32:00;;;;;;;2.75;1.40;;;;;;;29.09;50.28;99012.69;4975779;28;103440;-70
2022/09/04 09:35:09;;;;;;;2.40;1.50;;;;;;;28.49;54.42;98992.38;4959228;28;103214;-70
2022/09/04 09:38:13;;;;;;;2.13;1.40;;;;;;;28.82;50.79;98997.63;4965754;28;102684;-70
2022/09/04 09:41:08;;;;;;;1.50;1.40;;;;;;;29.93;50.09;99006.66;4972101;28;103983;-70
2022/09/04 09:44:05;;;;;;;3.55;1.50;;;;;;;30.10;50.04;98999.53;4952519;28;103408;-70
2022/09/04 09:47:11;;;;;;;2.03;1.10;;;;;;;29.57;48.59;99004.75;4974258;28;103213;-70
2022/09/04 09:50:06;;;;;;;1.58;1.40;;;;;;;26.98;52.43;99006.31;4913857;28;102936;-70
2022/09/04 09:53:27;;;;;;;1.50;1.30;;;;;;;26.23;56.69;99000.31;4966980;28;103969;-70
2022/09/04 09:56:37;;;;;;;2.03;1.30;;;;;;;26.47;52.82;99007.91;4950810;28;103279;-70
2022/09/04 09:59:52;;;;;;;1.30;1.20;;;;;;;25.24;56.66;99002.41;4955562;28;104405;-70
2022/09/04 10:02:45;;;;;;;1.10;1.00;;;;;;;26.25;55.38;99003.63;4967452;28;102674;-70
2022/09/04 10:05:36;;;;;;;3.92;3.67;;;;;;;26.12;55.76;99000.88;4975063;28;103177;-70
2022/09/04 10:08:27;;;;;;;2.58;1.33;;;;;;;26.31;57.36;99002.84;4972037;28;103343;-70
2022/09/04 10:11:43;;;;;;;1.77;1.30;;;;;;;27.36;52.35;98997.53;4972405;28;103588;-70
2022/09/04 10:14:46;;;;;;;1.90;1.30;;;;;;;28.48;54.04;98998.03;4970189;28;103628;-69
2022/09/04 10:17:54;;;;;;;2.23;1.13;;;;;;;27.42;51.08;98992.16;4954471;28;102896;-70
2022/09/04 10:20:45;;;;;;;1.58;1.10;;;;;;;28.07;48.79;98999.28;4976465;28;104001;-69
2022/09/04 10:23:51;;;;;;;1.42;1.10;;;;;;;28.45;48.73;98993.88;4975716;28;103311;-70
2022/09/04 10:26:49;;;;;;;1.92;1.10;;;;;;;27.06;50.54;98987.13;4967411;28;102662;-70
2022/09/04 10:29:34;;;;;;;1.10;0.80;;;;;;;28.79;50.88;98978.22;4980409;28;104076;-70
2022/09/04 10:32:20;;;;;;;1.35;1.00;;;;;;;27.20;49.64;98992.56;4973527;28;104110;-70
2022/09/04 10:35:09;;;;;;;2.60;1.13;;;;;;;27.85;49.15;98978.88;4969679;28;104341;-70
2022/09/04 10:38:10;;;;;;;3.00;1.40;;;;;;;28.70;48.16;98983.06;4977331;28;102596;-70
2022/09/04 10:41:04;;;;;;;1.40;0.98;;;;;;;27.22;47.51;98991.31;4971883;28;102962;-70
2022/09/04 10:43:55;;;;;;;0.83;0.77;;;;;;;28.26;47.08;98983.13;4958653;28;103296;-70
2022/09/04 10:46:29;;;;;;;1.30;0.82;;;;;;;29.01;45.71;98983.03;4969383;28;103817;-68
2022/09/04 10:49:14;;;;;;;2.00;1.02;;;;;;;28.63;46.80;98976.88;4976510;28;102955;-70
2022/09/04 10:52:07;;;;;;;1.50;0.80;;;;;;;28.08;45.83;98981.94;4970832;28;104037;-70
2022/09/04 10:55:06;;;;;;;1.40;1.00;;;;;;;27.45;46.20;98983.56;4961551;28;103303;-70
2022/09/04 10:57:48;;;;;;;1.17;0.90;;;;;;;27.45;44.21;98985.47;4972396;28;103217;-70
2022/09/04 11:00:19;;;;;;;2.10;0.90;;;;;;;28.30;43.80;98973.47;4972599;28;102917;-70
2022/09/04 11:03:14;;;;;;;1.60;0.90;;;;;;;29.39;44.52;98972.03;4955679;28;104621;-70
2022/09/04 11:06:27;;;;;;;1.60;0.73;;;;;;;29.60;43.25;98973.50;4974563;28;103311;-70
2022/09/04 11:09:17;;;;;;;1.10;0.80;;;;;;;29.64;43.10;98972.00;4966281;28;103196;-70
2022/09/04 11:12:16;;;;;;;1.35;0.85;;;;;;;30.29;41.64;98971.22;4955083;28;102840;-70
2022/09/04 11:15:26;;;;;;;1.33;1.20;;;;;;;29.10;43.23;98970.84;4974889;28;104206;-70
2022/09/04 11:18:36;;;;;;;2.47;2.10;;;;;;;29.29;43.53;98969.84;4901820;28;103412;-70
2022/09/04 11:21:46;;;;;;;1.90;1.50;;;;;;;29.72;42.75;98974.44;4895743;28;103432;-70
2022/09/04 11:24:43;;;;;;;1.90;1.00;;;;;;;30.09;42.45;98967.91;4972911;28;102881;-70
2022/09/04 11:27:51;;;;;;;1.30;0.90;;;;;;;31.10;40.45;98957.03;4973740;28;102812;-70
2022/09/04 11:30:22;;;;;;;2.20;0.90;;;;;;;30.73;40.26;98952.78;4975236;28;103049;-70
2022/09/04 11:33:35;;;;;;;1.63;1.03;;;;;;;30.66;41.33;98954.75;4972965;28;103172;-70
2022/09/04 11:36:45;;;;;;;1.70;1.00;;;;;;;30.05;43.06;98953.09;4909103;28;102802;-70
2022/09/04 11:40:05;;;;;;;3.40;1.00;;;;;;;28.36;43.92;98946.28;4965661;28;102894;-70
2022/09/04 11:42:49;;;;;;;1.50;1.00;;;;;;;28.53;44.55;98952.00;4969158;28;103286;-70
2022/09/04 11:45:46;;;;;;;1.10;1.00;;;;;;;29.22;43.57;98958.19;4971166;28;103890;-70
2022/09/04 11:48:41;;;;;;;1.77;1.00;;;;;;;29.92;40.83;98947.84;4973438;28;102800;-70
2022/09/04 11:51:39;;;;;;;1.73;0.90;;;;;;;30.40;40.32;98956.81;4976957;28;103004;-70
2022/09/04 11:54:37;;;;;;;1.20;0.98;;;;;;;30.07;40.81;98961.88;4955368;28;103284;-70
2022/09/04 11:57:16;;;;;;;2.10;1.00;;;;;;;31.30;38.95;98962.94;4977272;28;103203;-70
2022/09/04 12:00:05;;;;;;;1.30;1.17;;;;;;;31.23;38.24;98966.84;4974100;28;102781;-70
2022/09/04 12:03:08;;;;;;;1.27;0.90;;;;;;;29.36;39.72;98968.97;4974790;28;103870;-70
2022/09/04 12:05:49;;;;;;;1.03;0.80;;;;;;;29.74;40.68;98966.84;4972598;28;103435;-70
2022/09/04 12:08:49;;;;;;;1.35;0.90;;;;;;;29.31;40.74;98967.72;4968608;28;103237;-70
2022/09/04 12:11:49;;;;;;;1.00;1.00;;;;;;;30.28;39.77;98971.44;4973989;28;102624;-70
2022/09/04 12:14:34;;;;;;;1.38;0.90;;;;;;;30.63;38.86;98966.97;4962410;28;102877;-70
2022/09/04 12:17:26;;;;;;;1.90;1.13;;;;;;;29.76;41.31;98959.28;4974117;28;104223;-70
2022/09/04 12:20:25;;;;;;;1.70;0.98;;;;;;;29.01;41.34;98963.16;4972770;28;103172;-70
2022/09/04 12:23:17;;;;;;;1.13;0.77;;;;;;;30.00;40.57;98968.47;4932425;28;102849;-70
2022/09/04 12:26:17;;;;;;;1.00;0.90;;;;;;;30.00;40.45;98971.19;4974018;28;102812;-70
2022/09/04 12:29:21;;;;;;;2.20;1.02;;;;;;;30.02;40.99;98967.19;4975297;28;103295;-70
2022/09/04 12:32:34;;;;;;;1.20;1.00;;;;;;;29.38;40.86;98966.84;4971575;28;103247;-70
2022/09/04 12:35:25;;;;;;;1.00;0.80;;;;;;;31.07;39.21;98957.50;4959700;28;102747;-71
2022/09/04 12:38:17;;;;;;;1.30;0.90;;;;;;;31.35;38.87;98960.34;4949955;28;102972;-70
2022/09/04 12:40:54;;;;;;;1.30;0.93;;;;;;;31.18;39.00;98961.28;4977609;28;103228;-70
2022/09/04 12:43:41;;;;;;;1.00;0.90;;;;;;;31.74;37.60;98957.94;4972902;28;103253;-69
2022/09/04 12:46:28;;;;;;;16.25;1.90;;;;;;;31.02;37.94;98959.28;4955787;28;102738;-70
2022/09/04 12:49:16;;;;;;;1.50;0.98;;;;;;;30.83;37.93;98961.19;4969834;28;102794;-70
2022/09/04 12:51:51;;;;;;;1.00;0.85;;;;;;;29.51;39.13;98966.69;4967335;28;104264;-70
2022/09/04 12:54:32;;;;;;;1.73;0.80;;;;;;;31.07;37.41;98960.22;4966789;28;103203;-68